M I D A S
Marine Information and Data Acquisition System
Tripno 1025 of the Zeeleeuw from 2006-01-19 07:34:41 to 2006-01-19 16:23:26
Back to CruiseResearch ActivitiesStationsMapUnderway DataData graphs

EquipmentUnitsComments
TimeDGPSUTC
LatitudeDGPSDM.mWGS84
LongitudeDGPSDM.mWGS84
SpeedMeteo Stationm/sRelative wind speed
DirectionMeteo StationdegRelative wind direction
TemperatureMeteo Stationdeg CelciusAir temperature
PressureMeteo StationPaAtmospheric pressure
HumidityMeteo Station%Relative humidity
Missing or incorrect values are displayed as -999
Metereological data collected by the RV Zeeleeuw from 2006-01-19 07:34:12 to 2006-01-19 16:40:00
Time Latitude Longitude Speed Direction Temperature Pressure Humidity
2006-01-19 07:35 51°13.599 2°56.097 -999 70 7.2 101940 100
2006-01-19 07:36 51°13.597 2°56.098 -999 102 7.2 101940 100
2006-01-19 07:37 51°13.605 2°56.077 -999 91 7.2 101940 100
2006-01-19 07:38 51°13.623 2°56.021 -999 95 7.2 101940 100
2006-01-19 07:39 51°13.655 2°55.917 -999 137 7.2 101940 100
2006-01-19 07:40 51°13.69 2°55.79 -999 137 7.2 101950 100
2006-01-19 07:41 51°13.703 2°55.758 -999 140 7.2 101950 100
2006-01-19 07:42 51°13.711 2°55.758 -999 200 7.1 101960 100
2006-01-19 07:43 51°13.716 2°55.743 -999 225 7.3 101960 100
2006-01-19 07:44 51°13.775 2°55.677 -999 244 7.2 101960 100
2006-01-19 07:45 51°13.865 2°55.612 -999 169 7.2 101960 100
2006-01-19 07:46 51°13.966 2°55.539 -999 351 7.2 101960 100
2006-01-19 07:47 51°14.069 2°55.464 -999 313 7.3 101960 100
2006-01-19 07:48 51°14.179 2°55.367 -999 325 7.3 101960 100
2006-01-19 07:49 51°14.286 2°55.218 -999 316 7.3 101960 100
2006-01-19 07:50 51°14.38 2°55.026 -999 305 7.3 101950 100
2006-01-19 07:51 51°14.439 2°54.762 -999 316 7.4 101940 100
2006-01-19 07:52 51°14.465 2°54.425 -999 43 7.3 101930 100
2006-01-19 07:53 51°14.435 2°54.09 -999 341 7.2 101910 100
2006-01-19 07:54 51°14.321 2°53.791 -999 333 7.2 101910 100
2006-01-19 07:55 51°14.207 2°53.486 -999 342 7.2 101910 100
2006-01-19 07:56 51°14.097 2°53.184 -999 345 7.2 101880 100
2006-01-19 07:57 51°13.981 2°52.872 -999 339 7.2 101880 100
2006-01-19 07:58 51°13.861 2°52.577 -999 338 7.1 101870 100
2006-01-19 07:59 51°13.746 2°52.278 -999 335 7.1 101940 100
2006-01-19 08:00 51°13.631 2°51.976 -999 336 7.1 101930 100
2006-01-19 08:01 51°13.513 2°51.672 -999 338 7 101940 100
2006-01-19 08:02 51°13.395 2°51.369 -999 338 7 101930 100
2006-01-19 08:03 51°13.276 2°51.065 -999 336 7 101930 100
2006-01-19 08:04 51°13.158 2°50.759 -999 339 6.9 101940 100
2006-01-19 08:05 51°13.041 2°50.451 -999 341 6.9 101940 100
2006-01-19 08:06 51°12.927 2°50.14 -999 338 6.9 101950 100
2006-01-19 08:07 51°12.816 2°49.826 -999 343 6.9 101950 100
2006-01-19 08:08 51°12.706 2°49.513 -999 342 6.9 101950 100
2006-01-19 08:09 51°12.596 2°49.198 -999 340 6.9 101950 100
2006-01-19 08:10 51°12.486 2°48.885 -999 343 6.9 101950 100
2006-01-19 08:11 51°12.378 2°48.569 -999 341 6.9 101950 100
2006-01-19 08:12 51°12.268 2°48.254 -999 343 6.9 101950 100
2006-01-19 08:13 51°12.159 2°47.937 -999 338 6.9 101950 100
2006-01-19 08:14 51°12.05 2°47.623 -999 339 6.9 101950 100
2006-01-19 08:15 51°11.942 2°47.308 -999 344 6.9 101900 100
2006-01-19 08:16 51°11.832 2°46.995 -999 343 6.9 101900 100
2006-01-19 08:17 51°11.727 2°46.679 -999 339 7.1 101900 100
2006-01-19 08:18 51°11.621 2°46.364 -999 342 7.1 101900 100
2006-01-19 08:19 51°11.515 2°46.05 -999 340 7.1 101900 100
2006-01-19 08:20 51°11.426 2°45.721 -999 336 7.1 101900 100
2006-01-19 08:21 51°11.34 2°45.389 -999 338 7.1 101910 100
2006-01-19 08:22 51°11.255 2°45.057 -999 341 7.1 101910 100
2006-01-19 08:23 51°11.168 2°44.725 -999 341 7.1 101900 100
2006-01-19 08:24 51°11.082 2°44.393 -999 334 7.1 101910 100
2006-01-19 08:25 51°11.007 2°44.054 -999 336 7.1 101910 100
2006-01-19 08:26 51°10.929 2°43.715 -999 337 7.1 101910 100
2006-01-19 08:27 51°10.85 2°43.377 -999 339 7.1 101910 100
2006-01-19 08:28 51°10.774 2°43.031 -999 339 7.2 101910 100
2006-01-19 08:29 51°10.7 2°42.697 -999 339 7.3 101910 100
2006-01-19 08:30 51°10.625 2°42.357 -999 337 7.3 101910 100
2006-01-19 08:31 51°10.547 2°42.019 -999 338 7.3 101910 100
2006-01-19 08:32 51°10.472 2°41.678 -999 342 7.3 101920 100
2006-01-19 08:33 51°10.4 2°41.336 -999 338 7.2 101910 100
2006-01-19 08:34 51°10.33 2°40.993 -999 340 7.3 101910 100
2006-01-19 08:35 51°10.259 2°40.649 -999 339 7.3 101910 100
2006-01-19 08:36 51°10.185 2°40.307 -999 339 7.3 101900 100
2006-01-19 08:37 51°10.113 2°39.963 -999 341 7.2 101910 100
2006-01-19 08:38 51°10.041 2°39.619 -999 342 7.2 101910 100
2006-01-19 08:39 51°9.969 2°39.273 -999 339 7.2 101950 100
2006-01-19 08:40 51°9.898 2°38.925 -999 341 7.3 101950 100
2006-01-19 08:41 51°9.828 2°38.576 -999 342 7.3 101950 100
2006-01-19 08:42 51°9.759 2°38.224 -999 342 7.3 101950 100
2006-01-19 08:43 51°9.687 2°37.876 -999 341 7.4 101950 100
2006-01-19 08:44 51°9.615 2°37.526 -999 341 7.4 101940 100
2006-01-19 08:45 51°9.541 2°37.176 -999 341 7.4 101940 100
2006-01-19 08:46 51°9.468 2°36.825 -999 342 7.4 101940 100
2006-01-19 08:47 51°9.393 2°36.475 -999 343 7.5 101940 100
2006-01-19 08:48 51°9.317 2°36.123 -999 342 7.5 101940 100
2006-01-19 08:49 51°9.247 2°35.766 -999 340 7.5 101950 100
2006-01-19 08:50 51°9.177 2°35.412 -999 342 7.4 101940 100
2006-01-19 08:51 51°9.107 2°35.059 -999 341 7.4 101950 100
2006-01-19 08:52 51°9.039 2°34.706 -999 341 7.4 101940 100
2006-01-19 08:53 51°8.976 2°34.351 -999 340 7.4 101950 100
2006-01-19 08:54 51°8.917 2°33.996 -999 339 7.4 101960 100
2006-01-19 08:55 51°8.893 2°33.732 -999 309 7.4 101960 100
2006-01-19 08:56 51°8.985 2°33.693 -999 120 7.4 101980 100
2006-01-19 08:57 51°8.963 2°33.839 -999 79 7.4 101970 100
2006-01-19 08:58 51°8.962 2°33.966 -999 115 7.4 101980 100
2006-01-19 08:59 51°8.956 2°34.008 -999 97 7.4 101980 100
2006-01-19 09:00 51°8.946 2°34.002 -999 88 7.4 101990 100
2006-01-19 09:01 51°8.935 2°33.993 -999 70 7.4 101990 100
2006-01-19 09:02 51°8.88 2°33.971 -999 359 7.4 101970 100
2006-01-19 09:03 51°8.86 2°33.843 -999 295 7.4 101970 100
2006-01-19 09:04 51°8.921 2°33.786 -999 205 7.4 101990 100
2006-01-19 09:05 51°8.921 2°33.763 -999 159 7.7 101990 100
2006-01-19 09:06 51°8.923 2°33.747 -999 175 7.7 101990 100
2006-01-19 09:07 51°8.966 2°33.714 -999 283 7.8 101980 100
2006-01-19 09:08 51°8.963 2°33.588 -999 351 7.7 101980 100
2006-01-19 09:09 51°8.895 2°33.548 -999 64 7.7 101970 100
2006-01-19 09:10 51°8.831 2°33.606 -999 46 7.7 101980 100
2006-01-19 09:11 51°8.812 2°33.594 -999 12 7.7 101980 100
2006-01-19 09:12 51°8.809 2°33.579 -999 7 7.8 101990 100
2006-01-19 09:13 51°8.784 2°33.514 -999 321 7.8 101980 100
2006-01-19 09:14 51°8.771 2°33.445 -999 226 7.9 101980 100
2006-01-19 09:15 51°8.77 2°33.444 -999 306 7.8 101990 100
2006-01-19 09:16 51°8.767 2°33.421 -999 324 7.8 101990 100
2006-01-19 09:17 51°8.742 2°33.356 -999 358 7.8 101990 100
2006-01-19 09:18 51°8.686 2°33.281 -999 2 7.9 101990 100
2006-01-19 09:19 51°8.676 2°33.26 -999 342 7.9 101990 100
2006-01-19 09:20 51°8.671 2°33.242 -999 349 7.9 102000 100
2006-01-19 09:21 51°8.611 2°33.139 -999 347 7.9 101990 100
2006-01-19 09:22 51°8.595 2°33.101 -999 42 7.9 101990 100
2006-01-19 09:23 51°8.59 2°33.09 -999 304 7.9 102000 100
2006-01-19 09:24 51°8.573 2°33.029 -999 357 7.9 102000 100
2006-01-19 09:25 51°8.528 2°32.957 -999 359 7.9 102000 100
2006-01-19 09:26 51°8.522 2°32.943 -999 333 7.9 102000 100
2006-01-19 09:27 51°8.513 2°32.917 -999 347 7.9 102000 100
2006-01-19 09:28 51°8.466 2°32.825 -999 349 8 102000 100
2006-01-19 09:29 51°8.439 2°32.758 -999 321 8 102000 100
2006-01-19 09:30 51°8.434 2°32.755 -999 307 8 102010 100
2006-01-19 09:31 51°8.43 2°32.721 -999 318 8 102010 100
2006-01-19 09:32 51°8.409 2°32.599 -999 337 8 102000 100
2006-01-19 09:33 51°8.388 2°32.521 -999 335 8 102000 100
2006-01-19 09:34 51°8.386 2°32.502 -999 321 8 102010 100
2006-01-19 09:35 51°8.383 2°32.481 -999 311 8 102010 100
2006-01-19 09:36 51°8.378 2°32.432 -999 329 8.1 102010 100
2006-01-19 09:37 51°8.372 2°32.391 -999 323 8.1 102020 100
2006-01-19 09:38 51°8.37 2°32.409 -999 306 8.1 102020 100
2006-01-19 09:39 51°8.364 2°32.43 -999 291 8.1 102020 100
2006-01-19 09:40 51°8.356 2°32.431 -999 279 8.1 102020 100
2006-01-19 09:41 51°8.361 2°32.352 -999 326 8.1 102020 100
2006-01-19 09:42 51°8.384 2°32.238 -999 261 8.1 102010 100
2006-01-19 09:43 51°8.427 2°32.216 -999 197 8.1 102030 100
2006-01-19 09:44 51°8.438 2°32.244 -999 132 8.3 102040 100
2006-01-19 09:45 51°8.427 2°32.258 -999 117 8.3 102040 100
2006-01-19 09:46 51°8.415 2°32.266 -999 120 8.3 102040 100
2006-01-19 09:47 51°8.418 2°32.323 -999 161 8.2 102040 100
2006-01-19 09:48 51°8.456 2°32.422 -999 162 8.2 102040 100
2006-01-19 09:49 51°8.472 2°32.473 -999 155 8.2 102040 100
2006-01-19 09:50 51°8.47 2°32.482 -999 141 8.2 102040 100
2006-01-19 09:51 51°8.468 2°32.52 -999 144 8.2 102040 100
2006-01-19 09:52 51°8.503 2°32.605 -999 205 8.3 102050 100
2006-01-19 09:53 51°8.553 2°32.634 -999 210 8.4 102040 100
2006-01-19 09:54 51°8.561 2°32.628 -999 212 8.3 102040 100
2006-01-19 09:55 51°8.571 2°32.626 -999 196 8.3 102050 100
2006-01-19 09:56 51°8.597 2°32.674 -999 169 8.4 102050 100
2006-01-19 09:57 51°8.625 2°32.782 -999 143 8.4 102050 100
2006-01-19 09:58 51°8.624 2°32.838 -999 132 8.4 102040 100
2006-01-19 09:59 51°8.615 2°32.851 -999 130 8.4 102050 100
2006-01-19 10:00 51°8.606 2°32.906 -999 147 8.3 102010 100
2006-01-19 10:01 51°8.646 2°32.952 -999 236 8.4 102050 100
2006-01-19 10:02 51°8.701 2°33.002 -999 174 8.4 102050 100
2006-01-19 10:03 51°8.717 2°33.017 -999 216 8.5 102030 100
2006-01-19 10:04 51°8.733 2°33.016 -999 217 8.5 102030 100
2006-01-19 10:05 51°8.766 2°33.059 -999 164 8.5 102030 100
2006-01-19 10:06 51°8.791 2°33.159 -999 148 8.4 102030 100
2006-01-19 10:07 51°8.791 2°33.206 -999 126 8.4 102020 100
2006-01-19 10:08 51°8.776 2°33.22 -999 117 8.4 102020 100
2006-01-19 10:09 51°8.781 2°33.276 -999 194 8.4 102020 100
2006-01-19 10:10 51°8.842 2°33.312 -999 227 8.4 102030 100
2006-01-19 10:11 51°8.87 2°33.306 -999 200 8.4 102000 100
2006-01-19 10:12 51°8.87 2°33.291 -999 181 8.6 102030 100
2006-01-19 10:13 51°8.87 2°33.281 -999 165 8.6 102040 100
2006-01-19 10:14 51°8.874 2°33.303 -999 143 8.5 102030 100
2006-01-19 10:15 51°8.915 2°33.449 -999 164 8.4 102020 100
2006-01-19 10:16 51°8.947 2°33.51 -999 160 8.4 102030 100
2006-01-19 10:17 51°8.945 2°33.506 -999 144 8.4 102030 100
2006-01-19 10:18 51°8.942 2°33.537 -999 138 8.3 102020 100
2006-01-19 10:19 51°8.965 2°33.641 -999 156 8.3 102030 100
2006-01-19 10:20 51°8.992 2°33.739 -999 143 8.3 102040 100
2006-01-19 10:21 51°8.989 2°33.743 -999 149 8.3 102040 100
2006-01-19 10:22 51°8.992 2°33.777 -999 131 8.3 102030 100
2006-01-19 10:23 51°9.031 2°33.889 -999 200 8.2 102040 100
2006-01-19 10:24 51°9.053 2°33.914 -999 179 8.5 102030 100
2006-01-19 10:25 51°9.064 2°33.919 -999 189 8.5 102040 99
2006-01-19 10:26 51°9.113 2°33.91 -999 271 8.7 102030 99
2006-01-19 10:27 51°9.133 2°33.796 -999 325 8.6 102020 99
2006-01-19 10:28 51°9.13 2°33.782 -999 304 8.5 102030 99
2006-01-19 10:29 51°9.123 2°33.777 -999 294 8.4 102030 99
2006-01-19 10:30 51°9.116 2°33.769 -999 282 8.4 102040 99
2006-01-19 10:31 51°9.112 2°33.75 -999 279 8.4 102030 99
2006-01-19 10:32 51°9.119 2°33.663 -999 323 8.4 102020 99
2006-01-19 10:33 51°9.115 2°33.627 -999 42 8.4 102030 99
2006-01-19 10:34 51°9.11 2°33.617 -999 304 8.5 102030 99
2006-01-19 10:35 51°9.101 2°33.552 -999 347 8.5 102030 98
2006-01-19 10:36 51°9.041 2°33.473 -999 17 8.5 102040 98
2006-01-19 10:37 51°8.979 2°33.38 -999 357 8.5 102040 98
2006-01-19 10:38 51°8.981 2°33.379 -999 344 8.5 102040 98
2006-01-19 10:39 51°8.983 2°33.383 -999 322 8.6 102030 98
2006-01-19 10:40 51°8.97 2°33.313 -999 337 8.6 102010 98
2006-01-19 10:41 51°8.943 2°33.23 -999 355 8.6 102020 97
2006-01-19 10:42 51°8.943 2°33.219 -999 340 8.6 102030 98
2006-01-19 10:43 51°8.941 2°33.213 -999 321 8.6 102030 97
2006-01-19 10:44 51°8.938 2°33.207 -999 303 8.6 102020 97
2006-01-19 10:45 51°8.928 2°33.148 -999 345 8.6 102010 97
2006-01-19 10:46 51°8.901 2°33.088 -999 3 8.6 102030 97
2006-01-19 10:47 51°8.906 2°33.085 -999 12 8.6 102030 97
2006-01-19 10:48 51°8.891 2°33.058 -999 11 8.6 102020 97
2006-01-19 10:49 51°8.827 2°32.95 -999 356 8.6 102020 97
2006-01-19 10:50 51°8.796 2°32.886 -999 334 8.6 102010 97
2006-01-19 10:51 51°8.791 2°32.892 -999 36 8.6 102030 97
2006-01-19 10:52 51°8.781 2°32.853 -999 345 8.6 102020 97
2006-01-19 10:53 51°8.731 2°32.75 -999 3 8.6 102020 97
2006-01-19 10:54 51°8.708 2°32.709 -999 345 8.6 102040 97
2006-01-19 10:55 51°8.705 2°32.71 -999 327 8.6 102040 97
2006-01-19 10:56 51°8.684 2°32.627 -999 347 8.6 102040 97
2006-01-19 10:57 51°8.655 2°32.549 -999 343 8.6 102040 97
2006-01-19 10:58 51°8.654 2°32.552 -999 328 8.6 102040 97
2006-01-19 10:59 51°8.633 2°32.502 -999 12 8.6 102030 97
2006-01-19 11:00 51°8.564 2°32.427 -999 3 8.6 102050 97
2006-01-19 11:01 51°8.559 2°32.423 -999 359 8.6 102040 97
2006-01-19 11:02 51°8.562 2°32.427 -999 353 8.6 102040 97
2006-01-19 11:03 51°8.523 2°32.34 -999 344 8.6 102030 97
2006-01-19 11:04 51°8.485 2°32.211 -999 328 8.6 102030 97
2006-01-19 11:05 51°8.477 2°32.222 -999 304 8.6 102030 97
2006-01-19 11:06 51°8.467 2°32.235 -999 280 8.6 102030 97
2006-01-19 11:07 51°8.451 2°32.237 -999 268 8.6 102030 97
2006-01-19 11:08 51°8.436 2°32.232 -999 262 8.5 102030 97
2006-01-19 11:09 51°8.424 2°32.224 -999 262 8.5 102030 97
2006-01-19 11:10 51°8.413 2°32.214 -999 255 8.5 102020 97
2006-01-19 11:11 51°8.404 2°32.203 -999 250 8.4 102020 97
2006-01-19 11:12 51°8.397 2°32.189 -999 249 8.4 102030 97
2006-01-19 11:13 51°8.391 2°32.175 -999 255 8.4 102030 97
2006-01-19 11:14 51°8.386 2°32.157 -999 261 8.4 102020 97
2006-01-19 11:15 51°8.381 2°32.14 -999 259 8.4 102020 98
2006-01-19 11:16 51°8.376 2°32.122 -999 265 8.4 102020 98
2006-01-19 11:17 51°8.37 2°32.105 -999 274 8.4 102020 98
2006-01-19 11:18 51°8.365 2°32.087 -999 269 8.4 102020 98
2006-01-19 11:19 51°8.359 2°32.069 -999 271 8.5 102020 98
2006-01-19 11:20 51°8.355 2°32.052 -999 275 8.5 102020 98
2006-01-19 11:21 51°8.359 2°32.02 -999 273 8.6 102020 98
2006-01-19 11:22 51°8.38 2°31.967 -999 260 8.6 102020 98
2006-01-19 11:23 51°8.424 2°31.936 -999 224 8.6 102020 97
2006-01-19 11:24 51°8.475 2°31.945 -999 217 8.6 102020 97
2006-01-19 11:25 51°8.52 2°31.991 -999 162 8.7 102020 98
2006-01-19 11:26 51°8.544 2°32.046 -999 159 8.6 102010 97
2006-01-19 11:27 51°8.557 2°32.085 -999 148 8.6 102010 97
2006-01-19 11:28 51°8.557 2°32.106 -999 147 8.5 102010 97
2006-01-19 11:29 51°8.555 2°32.12 -999 135 8.5 102000 97
2006-01-19 11:30 51°8.549 2°32.13 -999 129 8.6 102000 98
2006-01-19 11:31 51°8.54 2°32.135 -999 119 8.6 102000 98
2006-01-19 11:32 51°8.532 2°32.134 -999 121 8.6 102000 98
2006-01-19 11:33 51°8.524 2°32.131 -999 110 8.6 101980 97
2006-01-19 11:34 51°8.515 2°32.126 -999 104 8.6 101980 97
2006-01-19 11:35 51°8.508 2°32.119 -999 98 8.6 101980 97
2006-01-19 11:36 51°8.5 2°32.112 -999 91 8.6 101980 97
2006-01-19 11:37 51°8.492 2°32.105 -999 92 8.6 101970 98
2006-01-19 11:38 51°8.485 2°32.099 -999 90 8.6 101980 98
2006-01-19 11:39 51°8.468 2°32.104 -999 68 8.6 101980 98
2006-01-19 11:40 51°8.403 2°32.092 -999 3 8.7 101980 98
2006-01-19 11:41 51°8.369 2°31.982 -999 302 8.8 101980 98
2006-01-19 11:42 51°8.418 2°31.91 -999 222 8.8 101990 97
2006-01-19 11:43 51°8.476 2°31.948 -999 202 8.9 101990 98
2006-01-19 11:44 51°8.531 2°32.014 -999 151 9.1 101990 97
2006-01-19 11:45 51°8.581 2°32.084 -999 195 9 101990 96
2006-01-19 11:46 51°8.607 2°32.1 -999 191 9.1 101990 97
2006-01-19 11:47 51°8.608 2°32.092 -999 180 9.4 101980 97
2006-01-19 11:48 51°8.61 2°32.095 -999 157 9.2 101980 95
2006-01-19 11:49 51°8.628 2°32.162 -999 136 9.1 101970 96
2006-01-19 11:50 51°8.651 2°32.267 -999 143 9 101970 96
2006-01-19 11:51 51°8.664 2°32.312 -999 157 9 101970 96
2006-01-19 11:52 51°8.664 2°32.313 -999 153 8.9 101970 96
2006-01-19 11:53 51°8.675 2°32.345 -999 145 8.9 101960 96
2006-01-19 11:54 51°8.709 2°32.425 -999 161 8.9 101970 97
2006-01-19 11:55 51°8.729 2°32.457 -999 174 8.9 101960 97
2006-01-19 11:56 51°8.732 2°32.457 -999 178 8.9 101970 97
2006-01-19 11:57 51°8.755 2°32.498 -999 161 8.9 101960 97
2006-01-19 11:58 51°8.791 2°32.586 -999 151 8.9 101960 97
2006-01-19 11:59 51°8.8 2°32.627 -999 129 8.8 101950 97
2006-01-19 12:00 51°8.799 2°32.63 -999 122 8.8 101950 97
2006-01-19 12:01 51°8.796 2°32.685 -999 144 8.8 101950 97
2006-01-19 12:02 51°8.836 2°32.769 -999 196 8.7 101960 97
2006-01-19 12:03 51°8.886 2°32.81 -999 223 9 101960 98
2006-01-19 12:04 51°8.886 2°32.807 -999 218 9 101960 97
2006-01-19 12:05 51°8.89 2°32.805 -999 232 8.9 101950 97
2006-01-19 12:06 51°8.933 2°32.812 -999 188 8.9 101960 97
2006-01-19 12:07 51°8.96 2°32.898 -999 121 8.9 101950 97
2006-01-19 12:08 51°8.961 2°32.977 -999 139 8.8 101950 97
2006-01-19 12:09 51°8.962 2°32.983 -999 147 8.8 101960 97
2006-01-19 12:10 51°8.966 2°32.993 -999 140 8.8 101960 97
2006-01-19 12:11 51°8.99 2°33.063 -999 155 8.7 101970 97
2006-01-19 12:12 51°9.024 2°33.137 -999 151 8.7 101970 97
2006-01-19 12:13 51°9.029 2°33.143 -999 147 8.6 101960 97
2006-01-19 12:14 51°9.033 2°33.157 -999 140 8.6 101960 98
2006-01-19 12:15 51°9.057 2°33.247 -999 147 8.6 101960 98
2006-01-19 12:16 51°9.08 2°33.302 -999 164 8.6 101970 98
2006-01-19 12:17 51°9.082 2°33.298 -999 164 8.6 101960 98
2006-01-19 12:18 51°9.086 2°33.299 -999 155 8.6 101970 98
2006-01-19 12:19 51°9.092 2°33.307 -999 151 8.6 101970 98
2006-01-19 12:20 51°9.114 2°33.386 -999 145 8.7 101970 99
2006-01-19 12:21 51°9.141 2°33.508 -999 133 8.7 101970 98
2006-01-19 12:22 51°9.146 2°33.525 -999 123 8.6 101960 98
2006-01-19 12:23 51°9.151 2°33.528 -999 130 8.6 101970 98
2006-01-19 12:24 51°9.162 2°33.609 -999 150 8.6 101970 98
2006-01-19 12:25 51°9.193 2°33.713 -999 142 8.5 101970 98
2006-01-19 12:26 51°9.199 2°33.722 -999 139 8.5 101960 99
2006-01-19 12:27 51°9.204 2°33.726 -999 137 8.5 101960 99
2006-01-19 12:28 51°9.21 2°33.732 -999 225 8.4 101960 99
2006-01-19 12:29 51°9.221 2°33.77 -999 168 8.4 101960 99
2006-01-19 12:30 51°9.278 2°33.787 -999 271 8.5 101960 99
2006-01-19 12:31 51°9.309 2°33.711 -999 326 8.5 101960 99
2006-01-19 12:32 51°9.294 2°33.643 -999 341 8.5 101950 99
2006-01-19 12:33 51°9.294 2°33.627 -999 316 8.5 101950 99
2006-01-19 12:34 51°9.299 2°33.617 -999 308 8.5 101950 99
2006-01-19 12:35 51°9.291 2°33.539 -999 346 8.6 101940 99
2006-01-19 12:36 51°9.229 2°33.469 -999 15 8.6 101950 99
2006-01-19 12:37 51°9.197 2°33.448 -999 31 8.6 101950 99
2006-01-19 12:38 51°9.198 2°33.454 -999 49 8.6 101950 99
2006-01-19 12:39 51°9.187 2°33.464 -999 31 8.5 101940 99
2006-01-19 12:40 51°9.148 2°33.423 -999 331 8.6 101940 100
2006-01-19 12:41 51°9.149 2°33.314 -999 329 8.6 101930 99
2006-01-19 12:42 51°9.137 2°33.239 -999 338 8.6 101940 100
2006-01-19 12:43 51°9.144 2°33.243 -999 324 8.6 101940 100
2006-01-19 12:44 51°9.151 2°33.24 -999 324 8.6 101930 99
2006-01-19 12:45 51°9.13 2°33.173 -999 356 8.6 101930 99
2006-01-19 12:46 51°9.095 2°33.105 -999 357 8.6 101930 100
2006-01-19 12:47 51°9.089 2°33.098 -999 2 8.7 101930 100
2006-01-19 12:48 51°9.086 2°33.101 -999 5 8.7 101930 100
2006-01-19 12:49 51°9.051 2°33.046 -999 350 8.7 101930 99
2006-01-19 12:50 51°9.026 2°32.93 -999 337 8.7 101920 99
2006-01-19 12:51 51°9.028 2°32.905 -999 299 8.7 101920 99
2006-01-19 12:52 51°9.038 2°32.915 -999 269 8.7 101920 99
2006-01-19 12:53 51°9.058 2°32.894 -999 316 8.7 101920 99
2006-01-19 12:54 51°9.04 2°32.833 -999 21 8.7 101920 99
2006-01-19 12:55 51°8.979 2°32.781 -999 11 8.6 101920 99
2006-01-19 12:56 51°8.947 2°32.735 -999 346 8.6 101920 99
2006-01-19 12:57 51°8.95 2°32.735 -999 322 8.6 101920 99
2006-01-19 12:58 51°8.961 2°32.72 -999 328 8.6 101910 99
2006-01-19 12:59 51°8.936 2°32.647 -999 25 8.5 101910 99
2006-01-19 13:00 51°8.866 2°32.605 -999 11 8.5 101910 99
2006-01-19 13:01 51°8.844 2°32.542 -999 333 8.4 101910 99
2006-01-19 13:02 51°8.852 2°32.548 -999 313 8.5 101910 99
2006-01-19 13:03 51°8.865 2°32.562 -999 285 8.5 101910 99
2006-01-19 13:04 51°8.887 2°32.548 -999 328 8.5 101910 99
2006-01-19 13:05 51°8.855 2°32.494 -999 19 8.5 101910 99
2006-01-19 13:06 51°8.77 2°32.417 -999 21 8.4 101910 99
2006-01-19 13:07 51°8.764 2°32.42 -999 357 8.5 101920 99
2006-01-19 13:08 51°8.769 2°32.44 -999 332 8.5 101920 100
2006-01-19 13:09 51°8.773 2°32.4 -999 348 8.6 101910 100
2006-01-19 13:10 51°8.746 2°32.268 -999 6 8.7 101910 100
2006-01-19 13:11 51°8.719 2°32.21 -999 4 8.6 101910 99
2006-01-19 13:12 51°8.719 2°32.212 -999 12 8.6 101920 99
2006-01-19 13:13 51°8.721 2°32.222 -999 11 8.6 101920 99
2006-01-19 13:14 51°8.704 2°32.191 -999 14 8.6 101920 100
2006-01-19 13:15 51°8.664 2°32.117 -999 17 8.6 101920 99
2006-01-19 13:16 51°8.663 2°32.124 -999 35 8.6 101920 99
2006-01-19 13:17 51°8.666 2°32.15 -999 51 8.6 101910 100
2006-01-19 13:18 51°8.635 2°32.15 -999 21 8.6 101920 100
2006-01-19 13:19 51°8.617 2°32.08 -999 340 8.6 101920 100
2006-01-19 13:20 51°8.678 2°31.976 -999 298 8.7 101910 100
2006-01-19 13:21 51°8.766 2°32.027 -999 223 8.8 101930 100
2006-01-19 13:22 51°8.787 2°32.076 -999 179 9.1 101930 100
2006-01-19 13:23 51°8.795 2°32.095 -999 171 9.2 101920 100
2006-01-19 13:24 51°8.808 2°32.134 -999 167 9.1 101920 100
2006-01-19 13:25 51°8.82 2°32.184 -999 159 9 101920 100
2006-01-19 13:26 51°8.827 2°32.191 -999 157 8.9 101910 100
2006-01-19 13:27 51°8.837 2°32.211 -999 158 8.8 101920 100
2006-01-19 13:28 51°8.85 2°32.295 -999 146 8.7 101910 100
2006-01-19 13:29 51°8.86 2°32.346 -999 159 8.7 101910 100
2006-01-19 13:30 51°8.868 2°32.36 -999 158 8.7 101910 100
2006-01-19 13:31 51°8.885 2°32.431 -999 178 8.7 101910 100
2006-01-19 13:32 51°8.901 2°32.485 -999 195 8.8 101910 100
2006-01-19 13:33 51°8.897 2°32.503 -999 198 8.9 101910 100
2006-01-19 13:34 51°8.909 2°32.546 -999 202 8.9 101910 100
2006-01-19 13:35 51°8.976 2°32.615 -999 258 9 101910 100
2006-01-19 13:36 51°9.029 2°32.661 -999 219 8.9 101910 100
2006-01-19 13:37 51°9.031 2°32.671 -999 196 8.7 101910 99
2006-01-19 13:38 51°9.037 2°32.694 -999 195 8.7 101910 100
2006-01-19 13:39 51°9.073 2°32.778 -999 194 8.9 101910 100
2006-01-19 13:40 51°9.085 2°32.82 -999 195 9 101910 100
2006-01-19 13:41 51°9.086 2°32.835 -999 187 9 101910 100
2006-01-19 13:42 51°9.11 2°32.9 -999 194 9.2 101900 100
2006-01-19 13:43 51°9.154 2°32.978 -999 211 9.2 101910 99
2006-01-19 13:44 51°9.151 2°32.995 -999 214 9 101910 99
2006-01-19 13:45 51°9.158 2°33.028 -999 200 8.9 101900 99
2006-01-19 13:46 51°9.208 2°33.101 -999 231 9.1 101910 99
2006-01-19 13:47 51°9.212 2°33.133 -999 219 9.1 101910 99
2006-01-19 13:48 51°9.213 2°33.165 -999 225 9.1 101910 99
2006-01-19 13:49 51°9.255 2°33.219 -999 234 9 101910 99
2006-01-19 13:50 51°9.298 2°33.287 -999 182 9 101910 99
2006-01-19 13:51 51°9.307 2°33.305 -999 164 9.1 101900 99
2006-01-19 13:52 51°9.32 2°33.334 -999 159 9 101900 99
2006-01-19 13:53 51°9.335 2°33.418 -999 140 8.9 101900 99
2006-01-19 13:54 51°9.354 2°33.526 -999 173 8.9 101900 99
2006-01-19 13:55 51°9.365 2°33.556 -999 172 8.9 101900 99
2006-01-19 13:56 51°9.376 2°33.576 -999 175 8.9 101900 99
2006-01-19 13:57 51°9.4 2°33.639 -999 211 8.9 101910 99
2006-01-19 13:58 51°9.474 2°33.692 -999 296 8.9 101910 99
2006-01-19 13:59 51°9.503 2°33.63 -999 2 8.8 101900 98
2006-01-19 14:00 51°9.47 2°33.552 -999 358 8.7 101900 98
2006-01-19 14:01 51°9.44 2°33.449 -999 2 8.7 101890 98
2006-01-19 14:02 51°9.431 2°33.426 -999 359 8.7 101900 98
2006-01-19 14:03 51°9.435 2°33.441 -999 359 8.6 101890 99
2006-01-19 14:04 51°9.417 2°33.396 -999 9 8.6 101890 99
2006-01-19 14:05 51°9.378 2°33.303 -999 3 8.6 101900 99
2006-01-19 14:06 51°9.353 2°33.222 -999 -999 8.5 101890 99
2006-01-19 14:07 51°9.35 2°33.213 -999 -999 8.5 101900 99
2006-01-19 14:08 51°9.353 2°33.219 -999 355 8.5 101900 99
2006-01-19 14:09 51°9.337 2°33.181 -999 5 8.5 101900 99
2006-01-19 14:10 51°9.303 2°33.124 -999 9 8.4 101900 99
2006-01-19 14:11 51°9.281 2°33.086 -999 4 8.3 101900 99
2006-01-19 14:12 51°9.279 2°33.081 -999 347 8.3 101910 99
2006-01-19 14:13 51°9.282 2°33.075 -999 340 8.3 101910 99
2006-01-19 14:14 51°9.261 2°33.008 -999 2 8.3 101900 99
2006-01-19 14:15 51°9.217 2°32.931 -999 12 8.3 101910 99
2006-01-19 14:16 51°9.205 2°32.928 -999 10 8.4 101910 100
2006-01-19 14:17 51°9.202 2°32.944 -999 20 8.5 101920 100
2006-01-19 14:18 51°9.174 2°32.897 -999 2 8.6 101910 100
2006-01-19 14:19 51°9.144 2°32.795 -999 351 8.7 101910 100
2006-01-19 14:20 51°9.137 2°32.734 -999 336 8.7 101910 100
2006-01-19 14:21 51°9.147 2°32.755 -999 230 8.7 101920 100
2006-01-19 14:22 51°9.159 2°32.779 -999 303 8.6 101930 99
2006-01-19 14:23 51°9.167 2°32.743 -999 1 8.6 101920 99
2006-01-19 14:24 51°9.119 2°32.687 -999 13 8.6 101920 100
2006-01-19 14:25 51°9.073 2°32.603 -999 6 8.6 101910 100
2006-01-19 14:26 51°9.071 2°32.6 -999 341 8.6 101920 100
2006-01-19 14:27 51°9.078 2°32.614 -999 320 8.5 101930 100
2006-01-19 14:28 51°9.09 2°32.632 -999 302 8.5 101940 100
2006-01-19 14:29 51°9.104 2°32.65 -999 304 8.5 101940 100
2006-01-19 14:30 51°9.123 2°32.645 -999 321 8.5 101940 100
2006-01-19 14:31 51°9.133 2°32.676 -999 309 8.5 101940 100
2006-01-19 14:32 51°9.142 2°32.709 -999 300 8.5 101930 100
2006-01-19 14:33 51°9.156 2°32.73 -999 319 8.5 101940 100
2006-01-19 14:34 51°9.145 2°32.636 -999 17 8.5 101920 100
2006-01-19 14:35 51°9.07 2°32.517 -999 9 8.5 101920 100
2006-01-19 14:36 51°9.01 2°32.414 -999 25 8.5 101920 100
2006-01-19 14:37 51°9 2°32.425 -999 61 8.5 101920 100
2006-01-19 14:38 51°8.992 2°32.454 -999 61 8.4 101920 100
2006-01-19 14:39 51°8.968 2°32.468 -999 16 8.3 101920 100
2006-01-19 14:40 51°8.955 2°32.452 -999 343 8.3 101920 100
2006-01-19 14:41 51°8.959 2°32.44 -999 330 8.4 101920 100
2006-01-19 14:42 51°8.967 2°32.387 -999 340 8.3 101920 100
2006-01-19 14:43 51°8.942 2°32.255 -999 353 8.2 101910 100
2006-01-19 14:44 51°8.94 2°32.222 -999 328 8.1 101910 100
2006-01-19 14:45 51°8.952 2°32.218 -999 316 8.2 101920 100
2006-01-19 14:46 51°8.965 2°32.208 -999 334 8.2 101910 100
2006-01-19 14:47 51°8.968 2°32.199 -999 349 8.3 101910 100
2006-01-19 14:48 51°8.963 2°32.201 -999 23 8.4 101910 100
2006-01-19 14:49 51°8.922 2°32.163 -999 17 8.5 101900 100
2006-01-19 14:50 51°8.87 2°32.076 -999 16 8.6 101890 100
2006-01-19 14:51 51°8.859 2°32.072 -999 6 8.6 101900 100
2006-01-19 14:52 51°8.855 2°32.082 -999 1 8.6 101900 100
2006-01-19 14:53 51°8.855 2°32.093 -999 340 8.4 101910 100
2006-01-19 14:54 51°8.859 2°32.106 -999 334 8.4 101910 100
2006-01-19 14:55 51°8.867 2°32.12 -999 321 8.3 101900 100
2006-01-19 14:56 51°8.877 2°32.103 -999 334 8.3 101910 100
2006-01-19 14:57 51°8.84 2°31.997 -999 2 8.3 101890 100
2006-01-19 14:58 51°8.814 2°31.947 -999 4 8.3 101900 100
2006-01-19 14:59 51°8.814 2°31.961 -999 6 8.3 101900 100
2006-01-19 15:00 51°8.813 2°31.979 -999 27 8.3 101900 100
2006-01-19 15:01 51°8.812 2°32.005 -999 52 8.3 101910 100
2006-01-19 15:02 51°8.814 2°32.035 -999 72 8.4 101910 100
2006-01-19 15:03 51°8.818 2°32.069 -999 90 8.4 101910 100
2006-01-19 15:04 51°8.803 2°32.13 -999 104 8.4 101910 100
2006-01-19 15:05 51°8.811 2°32.298 -999 150 8.3 101910 100
2006-01-19 15:06 51°8.855 2°32.58 -999 64 8.3 101910 100
2006-01-19 15:07 51°8.927 2°32.921 -999 52 8.2 101910 100
2006-01-19 15:08 51°8.992 2°33.274 -999 63 8.2 101910 100
2006-01-19 15:09 51°9.042 2°33.638 -999 60 8.2 101910 100
2006-01-19 15:10 51°9.102 2°34.007 -999 57 8.2 101910 100
2006-01-19 15:11 51°9.168 2°34.38 -999 60 8.3 101910 100
2006-01-19 15:12 51°9.233 2°34.753 -999 63 8.3 101910 100
2006-01-19 15:13 51°9.295 2°35.128 -999 73 8.4 101910 100
2006-01-19 15:14 51°9.355 2°35.495 -999 82 8.4 101910 100
2006-01-19 15:15 51°9.414 2°35.86 -999 65 8.4 101910 100
2006-01-19 15:16 51°9.472 2°36.232 -999 68 8.3 101910 100
2006-01-19 15:17 51°9.526 2°36.594 -999 66 8.3 101910 100
2006-01-19 15:18 51°9.583 2°36.962 -999 82 8.3 101920 100
2006-01-19 15:19 51°9.646 2°37.334 -999 79 8.3 101920 100
2006-01-19 15:20 51°9.704 2°37.71 -999 65 8.3 101920 100
2006-01-19 15:21 51°9.765 2°38.092 -999 47 8.3 101920 100
2006-01-19 15:22 51°9.83 2°38.468 -999 33 8.2 101930 100
2006-01-19 15:23 51°9.896 2°38.844 -999 84 8.2 101930 100
2006-01-19 15:24 51°9.968 2°39.217 -999 44 8.3 101930 100
2006-01-19 15:25 51°10.042 2°39.596 -999 50 8.3 101940 100
2006-01-19 15:26 51°10.114 2°39.963 -999 41 8.4 101940 100
2006-01-19 15:27 51°10.187 2°40.338 -999 43 8.4 101940 100
2006-01-19 15:28 51°10.258 2°40.708 -999 57 8.5 101950 100
2006-01-19 15:29 51°10.332 2°41.077 -999 28 8.5 101950 100
2006-01-19 15:30 51°10.41 2°41.446 -999 26 8.4 101950 100
2006-01-19 15:31 51°10.491 2°41.802 -999 22 8.3 101950 100
2006-01-19 15:32 51°10.572 2°42.165 -999 15 8.3 101950 100
2006-01-19 15:33 51°10.654 2°42.526 -999 14 8.3 101950 100
2006-01-19 15:34 51°10.736 2°42.887 -999 22 8.2 101950 100
2006-01-19 15:35 51°10.824 2°43.238 -999 14 8.3 101950 100
2006-01-19 15:36 51°10.913 2°43.602 -999 20 8.2 101950 100
2006-01-19 15:37 51°11 2°43.963 -999 21 8.2 101950 100
2006-01-19 15:38 51°11.088 2°44.319 -999 15 8.2 101950 100
2006-01-19 15:39 51°11.173 2°44.678 -999 23 8.2 101940 100
2006-01-19 15:40 51°11.265 2°45.041 -999 11 8.2 101950 100
2006-01-19 15:41 51°11.363 2°45.386 -999 18 8.2 101950 100
2006-01-19 15:42 51°11.46 2°45.738 -999 30 8.2 101950 100
2006-01-19 15:43 51°11.565 2°46.085 -999 18 8.2 101950 100
2006-01-19 15:44 51°11.67 2°46.43 -999 18 8.2 101950 100
2006-01-19 15:45 51°11.777 2°46.78 -999 16 8.2 101950 100
2006-01-19 15:46 51°11.885 2°47.127 -999 17 8.2 101950 100
2006-01-19 15:47 51°11.994 2°47.473 -999 24 8.2 101950 100
2006-01-19 15:48 51°12.111 2°47.812 -999 23 8.2 101950 100
2006-01-19 15:49 51°12.228 2°48.152 -999 16 8.2 101950 100
2006-01-19 15:50 51°12.347 2°48.488 -999 14 8.3 101950 100
2006-01-19 15:51 51°12.465 2°48.825 -999 31 8.3 101940 100
2006-01-19 15:52 51°12.585 2°49.158 -999 26 8.3 101950 100
2006-01-19 15:53 51°12.708 2°49.493 -999 35 8.4 101940 100
2006-01-19 15:54 51°12.829 2°49.83 -999 24 8.4 101940 100
2006-01-19 15:55 51°12.953 2°50.166 -999 110 8.4 101940 100
2006-01-19 15:56 51°13.078 2°50.504 -999 52 8.5 101940 100
2006-01-19 15:57 51°13.202 2°50.841 -999 17 8.5 101940 100
2006-01-19 15:58 51°13.329 2°51.184 -999 31 8.5 101940 100
2006-01-19 15:59 51°13.453 2°51.517 -999 48 8.4 101940 100
2006-01-19 16:00 51°13.579 2°51.852 -999 42 8.3 101940 100
2006-01-19 16:01 51°13.704 2°52.181 -999 59 8.2 101940 100
2006-01-19 16:02 51°13.832 2°52.524 -999 54 8.1 101940 100
2006-01-19 16:03 51°13.957 2°52.862 -999 56 8.1 101940 100
2006-01-19 16:04 51°14.071 2°53.17 -999 122 8.1 101940 100
2006-01-19 16:05 51°14.151 2°53.371 -999 177 8.1 101930 100
2006-01-19 16:06 51°14.212 2°53.513 -999 177 8.1 101940 100
2006-01-19 16:07 51°14.256 2°53.639 -999 157 8.2 101930 100
2006-01-19 16:08 51°14.285 2°53.754 -999 150 8.2 101930 100
2006-01-19 16:09 51°14.306 2°53.858 -999 151 8.2 101930 100
2006-01-19 16:10 51°14.337 2°53.949 -999 180 8.3 101930 100
2006-01-19 16:11 51°14.373 2°54.035 -999 182 8.5 101930 100
2006-01-19 16:12 51°14.409 2°54.11 -999 186 8.7 101930 100
2006-01-19 16:13 51°14.425 2°54.14 -999 181 9.2 101930 100
2006-01-19 16:14 51°14.438 2°54.159 -999 174 9 101930 100
2006-01-19 16:15 51°14.451 2°54.18 -999 170 8.8 101920 100
2006-01-19 16:16 51°14.465 2°54.209 -999 163 8.6 101920 100
2006-01-19 16:17 51°14.478 2°54.231 -999 151 8.5 101920 100
2006-01-19 16:18 51°14.493 2°54.255 -999 146 8.5 101920 100
2006-01-19 16:19 51°14.508 2°54.309 -999 134 8.4 101920 100
2006-01-19 16:20 51°14.517 2°54.416 -999 123 8.4 101930 100
2006-01-19 16:21 51°14.514 2°54.561 -999 105 8.3 101920 100
2006-01-19 16:22 51°14.473 2°54.77 -999 66 8.4 101920 100
2006-01-19 16:23 51°14.381 2°55.026 -999 55 8.4 101920 100
2006-01-19 16:24 51°14.268 2°55.26 -999 55 8.6 101920 100
2006-01-19 16:25 51°14.165 2°55.384 -999 41 9.1 101920 100
2006-01-19 16:26 51°14.073 2°55.454 -999 54 9.3 101910 100
2006-01-19 16:27 51°13.99 2°55.519 -999 49 9.5 101920 100
2006-01-19 16:28 51°13.911 2°55.577 -999 46 9.6 101920 100
2006-01-19 16:29 51°13.835 2°55.633 -999 29 9.7 101920 100
2006-01-19 16:30 51°13.763 2°55.698 -999 53 9.7 101920 100
2006-01-19 16:31 51°13.705 2°55.791 -999 64 9.8 101920 100
2006-01-19 16:32 51°13.66 2°55.895 -999 91 9.8 101930 100
2006-01-19 16:33 51°13.63 2°55.989 -999 100 9.8 101930 100
2006-01-19 16:34 51°13.612 2°56.057 -999 86 9.7 101930 100
2006-01-19 16:35 51°13.605 2°56.078 -999 106 9.7 101920 100
2006-01-19 16:36 51°13.599 2°56.088 -999 109 9.7 101930 100
2006-01-19 16:37 51°13.602 2°56.085 -999 107 9.7 101920 100
2006-01-19 16:38 51°13.598 2°56.092 -999 140 9.7 101930 100
2006-01-19 16:39 51°13.597 2°56.097 -999 133 9.7 101920 100